Time;durP1;ratioP1;P1;durP2;ratioP2;P2;SDS_P1;SDS_P2;PMS_P1;PMS_P2;Temp;Humidity;BMP_temperature;BMP_pressure;BME280_temperature;BME280_humidity;BME280_pressure;Samples;Min_cycle;Max_cycle;Signal;HPM_P1;HPM_P2
2023/10/02 00:01:36;;;;;;;0.65;0.50;;;23.50;72.90;;;;;;6263339;28;20049;-46
2023/10/02 00:04:41;;;;;;;0.60;0.50;;;23.50;72.90;;;;;;6253054;28;20118;-48
2023/10/02 00:07:44;;;;;;;0.70;0.40;;;23.80;73.00;;;;;;6245011;28;20056;-46
2023/10/02 00:10:51;;;;;;;1.08;0.73;;;23.50;72.90;;;;;;6263758;28;20041;-46
2023/10/02 00:14:18;;;;;;;1.10;0.80;;;23.60;72.80;;;;;;6263851;28;20041;-49
2023/10/02 00:17:18;;;;;;;0.70;0.70;;;23.70;72.90;;;;;;6246125;28;20048;-47
2023/10/02 00:20:21;;;;;;;0.70;0.70;;;23.50;72.70;;;;;;6275112;28;20052;-47
2023/10/02 00:23:23;;;;;;;1.08;0.60;;;23.30;72.60;;;;;;6282290;28;20079;-50
2023/10/02 00:26:25;;;;;;;0.90;0.70;;;23.60;72.80;;;;;;6278072;28;20045;-45
2023/10/02 00:29:28;;;;;;;0.75;0.57;;;23.40;72.70;;;;;;6283493;28;20045;-49
2023/10/02 00:32:31;;;;;;;1.15;0.80;;;23.50;72.70;;;;;;6264034;28;20072;-49
2023/10/02 00:35:49;;;;;;;0.82;0.55;;;23.50;72.70;;;;;;6285073;28;20529;-48
2023/10/02 00:38:52;;;;;;;0.80;0.55;;;23.60;72.80;;;;;;6272536;28;20037;-48
2023/10/02 00:45:08;;;;;;;1.35;0.95;;;23.20;72.30;;;;;;6273630;28;20766;-47
2023/10/02 00:51:29;;;;;;;0.75;0.60;;;23.40;72.30;;;;;;6265542;28;20053;-47
2023/10/02 00:54:34;;;;;;;0.82;0.57;;;23.40;72.50;;;;;;6284482;28;20051;-50
2023/10/02 00:57:38;;;;;;;0.90;0.60;;;23.20;72.30;;;;;;6281401;28;20045;-49
2023/10/02 01:00:47;;;;;;;0.88;0.47;;;23.00;72.10;;;;;;6252100;28;20178;-47
2023/10/02 01:07:09;;;;;;;0.82;0.60;;;23.30;72.30;;;;;;6264984;28;20048;-50
2023/10/02 01:10:18;;;;;;;0.57;0.50;;;23.50;72.50;;;;;;6274181;28;20048;-48
2023/10/02 01:13:24;;;;;;;0.70;0.70;;;23.10;72.70;;;;;;6281373;28;20059;-44
2023/10/02 01:16:28;;;;;;;1.10;0.77;;;22.40;71.70;;;;;;6285597;28;20051;-48
2023/10/02 01:19:52;;;;;;;0.80;0.60;;;23.40;72.10;;;;;;6279497;28;20068;-51
2023/10/02 01:23:11;;;;;;;0.80;0.60;;;23.40;72.20;;;;;;6268789;28;20060;-46
2023/10/02 01:26:18;;;;;;;1.00;0.77;;;23.30;72.10;;;;;;6306680;22;20406;-40
2023/10/02 01:29:22;;;;;;;0.90;0.60;;;23.30;72.20;;;;;;6312287;28;20040;-39
2023/10/02 01:32:26;;;;;;;1.00;0.60;;;23.30;72.20;;;;;;6315460;28;20054;-41
2023/10/02 01:35:29;;;;;;;1.08;0.50;;;23.30;72.20;;;;;;6331435;28;20588;-39
2023/10/02 01:38:36;;;;;;;0.70;0.60;;;23.00;72.00;;;;;;6338673;28;20047;-39
2023/10/02 01:41:38;;;;;;;0.85;0.60;;;23.50;72.00;;;;;;6338384;28;20059;-39
2023/10/02 01:44:54;;;;;;;0.88;0.65;;;23.40;72.10;;;;;;6337456;28;20096;-41
2023/10/02 01:47:56;;;;;;;0.90;0.50;;;23.30;72.00;;;;;;6323246;28;20043;-40
2023/10/02 01:51:15;;;;;;;1.05;0.70;;;23.60;72.20;;;;;;6322331;28;20505;-39
2023/10/02 01:54:16;;;;;;;0.60;0.50;;;23.20;71.80;;;;;;6329464;28;20043;-39
2023/10/02 01:57:24;;;;;;;0.77;0.50;;;23.20;71.90;;;;;;6338345;28;20050;-41
2023/10/02 02:00:26;;;;;;;1.10;0.55;;;23.80;72.10;;;;;;6337667;28;20117;-41
2023/10/02 02:03:29;;;;;;;0.55;0.50;;;23.20;71.80;;;;;;6312244;28;20082;-39
2023/10/02 02:06:34;;;;;;;0.60;0.45;;;23.10;71.60;;;;;;6324851;28;20051;-39
2023/10/02 02:09:42;;;;;;;0.70;0.50;;;23.60;71.80;;;;;;6314797;28;20054;-41
2023/10/02 02:12:45;;;;;;;0.80;0.45;;;23.20;71.50;;;;;;6331588;28;20432;-40
2023/10/02 02:15:47;;;;;;;0.57;0.50;;;23.20;71.50;;;;;;6337439;28;20043;-41
2023/10/02 02:18:53;;;;;;;0.45;0.45;;;23.20;71.50;;;;;;6329236;28;20044;-40
2023/10/02 02:21:56;;;;;;;0.80;0.60;;;23.30;71.40;;;;;;6324856;28;20051;-39
2023/10/02 02:24:59;;;;;;;0.68;0.43;;;23.30;71.40;;;;;;6331601;28;20525;-41
2023/10/02 02:28:06;;;;;;;1.10;0.50;;;23.30;71.20;;;;;;6314647;28;20596;-39
2023/10/02 02:31:29;;;;;;;1.08;0.60;;;22.90;70.90;;;;;;6334323;28;20043;-39
2023/10/02 02:34:32;;;;;;;0.50;0.40;;;23.00;71.00;;;;;;6333210;28;20109;-39
2023/10/02 02:37:33;;;;;;;0.50;0.45;;;23.30;70.90;;;;;;6333925;28;20040;-39
2023/10/02 02:40:35;;;;;;;0.73;0.57;;;23.00;70.90;;;;;;6334315;28;20043;-39
2023/10/02 02:43:46;;;;;;;0.93;0.55;;;23.30;70.70;;;;;;6334072;28;20153;-39
2023/10/02 02:46:53;;;;;;;0.85;0.60;;;23.10;70.70;;;;;;6334035;28;20528;-39
2023/10/02 02:49:58;;;;;;;0.70;0.40;;;22.90;70.40;;;;;;6334193;28;20059;-39
2023/10/02 02:56:18;;;;;;;0.63;0.30;;;23.20;70.40;;;;;;6333524;28;20443;-39
2023/10/02 02:59:22;;;;;;;0.88;0.50;;;23.10;70.40;;;;;;6332721;28;20472;-39
2023/10/02 03:02:23;;;;;;;1.05;0.50;;;23.30;70.20;;;;;;6334697;28;20054;-39
2023/10/02 03:05:37;;;;;;;0.60;0.60;;;23.30;70.40;;;;;;6334971;28;20054;-39
2023/10/02 03:08:41;;;;;;;0.60;0.40;;;23.30;70.20;;;;;;6333630;28;20096;-39
2023/10/02 03:11:42;;;;;;;0.90;0.68;;;23.10;70.10;;;;;;6333244;28;20398;-42
